Terminal Aerodrome Forecast
Issued by NWS

Home | Current Version | Previous Version | Text Only | Print | Product List | Glossary On
Versions: 1 2 3 4 5 6 7 8 9 10 11 12 13 14 15 16 17
162
FTUS45 KABQ 270946 AAA
TAFSAF
TAF AMD
KSAF 270946Z 2710/2806 VRB05KT P6SM VCSH SCT030 BKN050
     FM271400 25015G25KT P6SM BKN060
     FM271600 26025G35KT P6SM BKN060
     FM272000 28029G39KT P6SM SCT040 BKN100
     FM280200 33011KT P6SM SCT100=

USA.gov is the U.S. government's official web portal to all federal, state and local government web resources and services.